Time;durP1;ratioP1;P1;durP2;ratioP2;P2;SDS_P1;SDS_P2;PMS_P1;PMS_P2;Temp;Humidity;BMP_temperature;BMP_pressure;BME280_temperature;BME280_humidity;BME280_pressure;Samples;Min_cycle;Max_cycle;Signal;HPM_P1;HPM_P2
2021/10/17 00:00:15;;;;;;;1.95;1.13;;;20.90;56.60;;;;;;5071863;28;20043;-64
2021/10/17 00:02:44;;;;;;;2.65;1.35;;;20.90;54.60;;;;;;5072414;28;20336;-64
2021/10/17 00:05:12;;;;;;;1.98;0.70;;;20.90;56.50;;;;;;5072430;28;20029;-58
2021/10/17 00:07:40;;;;;;;3.75;0.80;;;21.00;54.20;;;;;;5072755;28;20039;-62
2021/10/17 00:10:11;;;;;;;1.38;0.90;;;21.00;54.20;;;;;;5072285;28;20029;-58
2021/10/17 00:12:39;;;;;;;2.05;1.10;;;21.10;54.80;;;;;;5072168;28;20120;-60
2021/10/17 00:15:09;;;;;;;2.08;0.90;;;21.10;55.60;;;;;;5071041;28;20040;-64
2021/10/17 00:17:38;;;;;;;2.22;1.13;;;21.20;52.80;;;;;;5072194;28;20032;-64
2021/10/17 00:20:08;;;;;;;3.55;1.08;;;21.30;55.10;;;;;;5072105;28;20045;-62
2021/10/17 00:22:36;;;;;;;1.63;1.20;;;21.30;55.60;;;;;;5072334;28;20471;-63
2021/10/17 00:25:04;;;;;;;2.58;1.02;;;21.30;56.50;;;;;;5072471;28;20060;-63
2021/10/17 00:27:32;;;;;;;1.83;0.70;;;21.40;54.10;;;;;;5071591;28;20052;-61
2021/10/17 00:30:00;;;;;;;2.45;1.23;;;21.40;53.60;;;;;;5070806;28;20157;-65
2021/10/17 00:32:27;;;;;;;4.45;1.00;;;21.30;57.00;;;;;;5071745;28;20063;-64
2021/10/17 00:34:54;;;;;;;1.83;0.98;;;21.50;54.40;;;;;;5064552;28;20036;-56
2021/10/17 00:37:22;;;;;;;2.08;0.70;;;21.50;55.80;;;;;;5070222;28;20020;-59
2021/10/17 00:39:49;;;;;;;2.47;0.90;;;21.60;52.70;;;;;;5068777;28;20035;-60
2021/10/17 00:42:18;;;;;;;1.67;0.90;;;21.60;56.40;;;;;;5069181;28;20024;-59
2021/10/17 00:44:46;;;;;;;4.30;1.15;;;21.70;51.80;;;;;;5069243;28;20021;-57
2021/10/17 00:47:13;;;;;;;2.42;1.23;;;21.70;53.10;;;;;;5069940;28;20439;-62
2021/10/17 00:49:40;;;;;;;2.55;0.98;;;21.80;53.80;;;;;;5067023;28;20032;-61
2021/10/17 00:52:07;;;;;;;1.75;0.90;;;21.80;52.10;;;;;;5069079;28;20040;-63
2021/10/17 00:54:35;;;;;;;1.08;0.75;;;21.90;55.90;;;;;;5068947;28;20048;-63
2021/10/17 00:57:02;;;;;;;1.77;0.80;;;21.90;56.10;;;;;;5069602;28;20249;-58
2021/10/17 00:59:29;;;;;;;2.58;1.10;;;21.80;51.90;;;;;;5065894;28;20028;-61
2021/10/17 01:01:57;;;;;;;1.35;0.80;;;21.90;53.30;;;;;;5069173;28;20433;-62
2021/10/17 01:04:24;;;;;;;4.93;1.38;;;22.00;56.10;;;;;;5069423;28;20021;-60
2021/10/17 01:06:52;;;;;;;2.20;0.75;;;22.00;53.50;;;;;;5069794;28;20360;-65
2021/10/17 01:09:20;;;;;;;5.57;1.33;;;22.10;53.40;;;;;;5063332;28;20032;-59
2021/10/17 01:11:49;;;;;;;3.08;1.10;;;22.20;53.30;;;;;;5069510;28;20498;-60
2021/10/17 01:14:20;;;;;;;0.68;0.65;;;22.10;53.60;;;;;;5073539;28;20043;-59
2021/10/17 01:16:50;;;;;;;3.72;0.95;;;22.10;56.00;;;;;;5073642;28;20035;-60
2021/10/17 01:19:18;;;;;;;2.58;0.88;;;22.10;53.00;;;;;;5067671;28;20036;-61
2021/10/17 01:21:46;;;;;;;1.63;0.75;;;22.10;53.90;;;;;;5071851;28;20020;-60
2021/10/17 01:24:14;;;;;;;1.75;0.90;;;22.10;55.70;;;;;;5071378;28;20094;-62
2021/10/17 01:26:42;;;;;;;1.13;0.52;;;22.10;56.00;;;;;;5071949;28;20021;-60
2021/10/17 01:29:10;;;;;;;1.85;0.90;;;22.10;54.30;;;;;;5069585;28;20491;-61
2021/10/17 01:31:37;;;;;;;2.05;0.85;;;22.30;53.30;;;;;;5069809;28;20029;-60
2021/10/17 01:34:07;;;;;;;2.38;1.17;;;22.20;55.70;;;;;;5072519;28;20051;-65
2021/10/17 01:36:36;;;;;;;1.45;1.00;;;22.20;54.00;;;;;;5072175;28;20471;-63
2021/10/17 01:39:06;;;;;;;3.53;0.82;;;22.20;56.30;;;;;;5071242;28;20020;-63
2021/10/17 01:41:36;;;;;;;3.70;1.00;;;22.30;54.80;;;;;;5071004;28;20140;-59
2021/10/17 01:44:11;;;;;;;1.65;0.90;;;22.40;53.10;;;;;;5072484;28;20032;-61
2021/10/17 01:46:38;;;;;;;2.13;0.60;;;22.40;56.30;;;;;;5071947;28;20031;-60
2021/10/17 01:49:07;;;;;;;1.73;0.70;;;22.50;54.50;;;;;;5070883;28;20029;-60
2021/10/17 01:51:35;;;;;;;1.60;0.88;;;22.40;56.00;;;;;;5070931;28;20044;-65
2021/10/17 01:54:05;;;;;;;1.40;0.90;;;22.30;55.80;;;;;;5070803;28;20106;-56
2021/10/17 01:56:37;;;;;;;1.38;0.60;;;22.30;55.50;;;;;;5071696;28;20012;-61
2021/10/17 01:59:05;;;;;;;2.25;1.15;;;22.40;55.60;;;;;;5070838;28;20025;-59
2021/10/17 02:01:33;;;;;;;1.98;1.20;;;22.30;56.60;;;;;;5069933;28;20029;-60
2021/10/17 02:04:01;;;;;;;2.83;0.88;;;22.40;55.10;;;;;;5072050;28;20032;-59
2021/10/17 02:06:30;;;;;;;1.95;1.13;;;22.40;54.50;;;;;;5071661;28;20102;-61
2021/10/17 02:08:59;;;;;;;1.30;0.70;;;22.40;55.10;;;;;;5072585;28;20028;-62
2021/10/17 02:11:26;;;;;;;1.52;1.10;;;22.40;56.50;;;;;;5068636;28;20027;-64
2021/10/17 02:13:54;;;;;;;2.55;0.80;;;22.50;54.90;;;;;;5070424;28;20020;-62
2021/10/17 02:16:21;;;;;;;1.77;0.98;;;22.50;56.90;;;;;;5071228;28;20032;-59
2021/10/17 02:18:48;;;;;;;2.58;1.00;;;22.50;56.00;;;;;;5072386;28;20124;-61
2021/10/17 02:21:16;;;;;;;2.05;0.85;;;22.50;56.20;;;;;;5066864;28;20036;-60
2021/10/17 02:23:43;;;;;;;3.17;1.25;;;22.50;56.00;;;;;;5071459;28;20020;-59
2021/10/17 02:26:11;;;;;;;28.58;24.20;;;22.50;55.70;;;;;;5070620;28;20059;-55
2021/10/17 02:28:38;;;;;;;8.65;7.50;;;22.60;54.50;;;;;;5072311;28;20047;-49
2021/10/17 02:31:05;;;;;;;6.70;2.20;;;22.70;54.50;;;;;;5068034;28;20131;-59
2021/10/17 02:33:33;;;;;;;19.00;5.72;;;22.60;52.50;;;;;;5071431;28;20037;-59
2021/10/17 02:36:02;;;;;;;10.52;6.57;;;22.30;56.00;;;;;;5071977;28;20129;-61
2021/10/17 02:38:29;;;;;;;9.00;4.35;;;22.40;55.90;;;;;;5070897;28;20474;-62
2021/10/17 02:40:57;;;;;;;6.50;5.18;;;22.50;53.00;;;;;;5062879;28;20434;-57
2021/10/17 02:43:24;;;;;;;5.25;1.30;;;22.50;50.10;;;;;;5071365;28;20027;-58
2021/10/17 02:45:52;;;;;;;8.30;6.65;;;22.40;49.60;;;;;;5071333;28;20036;-59
2021/10/17 02:48:20;;;;;;;8.02;6.80;;;22.30;56.20;;;;;;5071548;28;20420;-61
2021/10/17 02:50:48;;;;;;;7.10;6.40;;;22.40;55.80;;;;;;5067804;28;20025;-60
2021/10/17 02:53:15;;;;;;;5.90;4.97;;;22.50;57.30;;;;;;5071161;28;20051;-62
2021/10/17 02:55:42;;;;;;;6.20;5.47;;;22.60;57.60;;;;;;5070308;28;20032;-60
2021/10/17 02:58:10;;;;;;;13.30;12.20;;;22.60;58.30;;;;;;5071642;28;20529;-60
2021/10/17 03:00:37;;;;;;;6.60;4.63;;;22.60;57.80;;;;;;5064185;28;20054;-59
2021/10/17 03:03:04;;;;;;;9.52;8.35;;;22.70;57.70;;;;;;5071471;28;20020;-55
2021/10/17 03:05:32;;;;;;;7.88;4.65;;;22.70;58.00;;;;;;5070482;28;20547;-60
2021/10/17 03:08:00;;;;;;;7.82;6.97;;;22.70;52.90;;;;;;5069772;28;20382;-58
2021/10/17 03:10:27;;;;;;;5.40;4.90;;;22.70;59.80;;;;;;5064538;28;20455;-59
2021/10/17 03:12:54;;;;;;;11.70;7.47;;;22.60;59.70;;;;;;5070681;28;20226;-57
2021/10/17 03:15:22;;;;;;;13.30;7.97;;;22.60;60.20;;;;;;5069780;28;20035;-62
2021/10/17 03:17:49;;;;;;;6.75;5.97;;;22.80;58.00;;;;;;5070969;28;20439;-60
2021/10/17 03:20:17;;;;;;;6.60;5.25;;;22.60;60.70;;;;;;5064859;28;20187;-60
2021/10/17 03:22:44;;;;;;;5.13;3.78;;;22.60;61.50;;;;;;5069700;28;20021;-59
2021/10/17 03:25:11;;;;;;;4.95;3.03;;;22.70;61.30;;;;;;5069480;28;20375;-60
2021/10/17 03:27:39;;;;;;;7.32;4.55;;;22.90;57.30;;;;;;5070435;28;20020;-54
2021/10/17 03:30:07;;;;;;;22.02;17.25;;;23.00;59.00;;;;;;5063736;28;20021;-54
2021/10/17 03:32:35;;;;;;;13.15;8.98;;;23.20;58.50;;;;;;5070663;28;20107;-52
2021/10/17 03:35:03;;;;;;;9.48;7.22;;;23.30;56.80;;;;;;5069295;28;20079;-51
2021/10/17 03:37:34;;;;;;;13.30;8.10;;;23.40;57.90;;;;;;5068047;28;20025;-53
2021/10/17 03:40:02;;;;;;;19.35;13.00;;;23.50;58.10;;;;;;5061515;28;20020;-55
2021/10/17 03:42:29;;;;;;;18.80;7.45;;;23.50;58.50;;;;;;5071005;28;20032;-66
2021/10/17 03:44:57;;;;;;;13.52;4.30;;;23.50;57.60;;;;;;5068382;28;20041;-59
2021/10/17 03:47:24;;;;;;;13.82;7.35;;;23.60;57.10;;;;;;5070066;28;20040;-55
2021/10/17 03:49:52;;;;;;;14.15;10.20;;;23.60;58.50;;;;;;5063570;28;20024;-63
2021/10/17 03:52:19;;;;;;;13.88;9.77;;;23.50;53.30;;;;;;5070369;28;20494;-65
2021/10/17 03:54:47;;;;;;;14.98;6.97;;;23.50;56.70;;;;;;5070533;28;20105;-67
2021/10/17 03:57:17;;;;;;;16.42;6.55;;;23.50;54.30;;;;;;5069955;28;20053;-63
2021/10/17 03:59:44;;;;;;;12.40;4.80;;;23.50;55.50;;;;;;5072216;28;20031;-65
2021/10/17 04:02:13;;;;;;;13.35;8.52;;;23.50;55.50;;;;;;5070969;28;20574;-69
2021/10/17 04:04:41;;;;;;;6.75;5.20;;;23.50;55.30;;;;;;5072066;28;20021;-71
2021/10/17 04:07:08;;;;;;;14.02;5.22;;;23.50;54.40;;;;;;5070790;28;20497;-60
2021/10/17 04:09:36;;;;;;;8.07;4.15;;;23.40;54.70;;;;;;5071720;28;20023;-63
2021/10/17 04:12:03;;;;;;;9.95;5.40;;;23.50;55.80;;;;;;5070949;28;20422;-69
2021/10/17 04:14:32;;;;;;;17.10;5.88;;;23.50;54.50;;;;;;5071469;28;20552;-64
2021/10/17 04:16:59;;;;;;;10.57;7.57;;;23.50;54.20;;;;;;5062952;28;20666;-66
2021/10/17 04:19:26;;;;;;;8.15;6.07;;;23.50;56.60;;;;;;5072287;28;20049;-63
2021/10/17 04:21:54;;;;;;;4.47;2.53;;;23.60;56.90;;;;;;5072322;28;20032;-62
2021/10/17 04:24:21;;;;;;;5.90;3.00;;;23.60;55.90;;;;;;5072233;28;20036;-63
2021/10/17 04:26:48;;;;;;;14.15;2.50;;;23.60;54.90;;;;;;5071902;28;20028;-65
2021/10/17 04:29:16;;;;;;;6.78;2.08;;;23.60;58.50;;;;;;5072081;28;20033;-66
2021/10/17 04:31:43;;;;;;;4.05;1.70;;;23.60;57.30;;;;;;5072099;28;20021;-57
2021/10/17 04:34:10;;;;;;;11.93;2.13;;;23.60;58.00;;;;;;5071831;28;20085;-57
2021/10/17 04:36:38;;;;;;;7.88;2.28;;;23.50;59.00;;;;;;5072031;28;20062;-59
2021/10/17 04:39:07;;;;;;;8.68;2.03;;;23.50;53.50;;;;;;5071292;28;20029;-65
2021/10/17 04:41:35;;;;;;;5.75;1.58;;;23.40;57.70;;;;;;5072130;28;20054;-64
2021/10/17 04:44:05;;;;;;;4.38;1.50;;;23.40;55.70;;;;;;5071875;28;20031;-63
2021/10/17 04:46:33;;;;;;;9.20;1.63;;;23.50;56.30;;;;;;5073039;28;20021;-61
2021/10/17 04:49:00;;;;;;;12.20;1.63;;;23.60;57.90;;;;;;5075853;28;20528;-61
2021/10/17 04:51:27;;;;;;;17.60;1.83;;;23.60;57.60;;;;;;5075701;28;20068;-64
2021/10/17 04:53:56;;;;;;;18.80;1.88;;;23.60;58.10;;;;;;5074312;28;20343;-64
2021/10/17 04:56:31;;;;;;;6.85;1.65;;;23.60;55.70;;;;;;5075771;28;20112;-60
2021/10/17 04:58:59;;;;;;;6.60;1.40;;;23.60;59.40;;;;;;5058951;28;20040;-65
2021/10/17 05:01:27;;;;;;;13.35;2.33;;;23.60;57.50;;;;;;5075164;28;20113;-69
2021/10/17 05:03:55;;;;;;;5.90;1.30;;;23.70;59.70;;;;;;5074303;28;20332;-61
2021/10/17 05:06:22;;;;;;;5.13;1.33;;;23.70;58.30;;;;;;5075729;28;20324;-68
2021/10/17 05:08:49;;;;;;;5.70;1.20;;;23.60;57.40;;;;;;5075497;28;20489;-65
2021/10/17 05:11:17;;;;;;;5.95;1.52;;;23.50;56.00;;;;;;5075295;28;20024;-61
2021/10/17 05:13:44;;;;;;;4.90;0.90;;;23.40;56.00;;;;;;5074969;28;20086;-55
2021/10/17 05:16:12;;;;;;;9.15;1.40;;;23.40;55.50;;;;;;5066095;28;20328;-51
2021/10/17 05:18:39;;;;;;;5.90;1.30;;;23.30;57.00;;;;;;5072153;28;20043;-59
2021/10/17 05:21:06;;;;;;;4.28;1.45;;;23.30;56.90;;;;;;5073362;28;20024;-62
2021/10/17 05:23:35;;;;;;;14.15;1.83;;;23.30;58.00;;;;;;5072275;28;20040;-61
2021/10/17 05:26:03;;;;;;;4.30;1.23;;;23.20;57.10;;;;;;5070512;28;20423;-63
2021/10/17 05:28:31;;;;;;;2.78;1.10;;;23.20;58.50;;;;;;5071034;28;20056;-64
2021/10/17 05:31:03;;;;;;;3.75;1.60;;;23.10;57.80;;;;;;5072562;28;20039;-60
2021/10/17 05:33:36;;;;;;;5.25;1.13;;;23.10;58.20;;;;;;5071716;28;20063;-59
2021/10/17 05:36:07;;;;;;;2.97;1.08;;;23.10;56.90;;;;;;5072331;28;20032;-59
2021/10/17 05:38:35;;;;;;;2.60;1.27;;;23.00;58.10;;;;;;5071809;28;20025;-61
2021/10/17 05:41:02;;;;;;;2.65;1.20;;;23.00;58.40;;;;;;5072771;28;20028;-64
2021/10/17 05:43:31;;;;;;;3.97;1.08;;;22.90;58.10;;;;;;5072255;28;20478;-63
2021/10/17 05:45:58;;;;;;;4.32;1.23;;;22.90;58.70;;;;;;5071102;28;20478;-56
2021/10/17 05:48:26;;;;;;;1.90;0.70;;;22.80;57.50;;;;;;5072688;28;20027;-55
2021/10/17 05:50:54;;;;;;;5.00;0.90;;;22.80;59.40;;;;;;5072708;28;20025;-62
2021/10/17 05:53:21;;;;;;;3.70;1.55;;;22.70;59.60;;;;;;5072838;28;20047;-60
2021/10/17 05:55:48;;;;;;;3.70;1.02;;;22.70;58.40;;;;;;5066864;28;20028;-60
2021/10/17 05:58:16;;;;;;;5.25;1.48;;;22.70;59.00;;;;;;5071746;28;20043;-60
2021/10/17 06:00:43;;;;;;;1.50;0.85;;;22.70;58.50;;;;;;5071809;28;20050;-59
2021/10/17 06:03:10;;;;;;;2.33;0.90;;;22.70;60.00;;;;;;5072598;28;20036;-56
2021/10/17 06:05:38;;;;;;;3.38;1.40;;;22.70;59.70;;;;;;5067725;28;20367;-59
2021/10/17 06:08:05;;;;;;;4.80;0.85;;;22.70;60.10;;;;;;5072410;28;20016;-59
2021/10/17 06:10:33;;;;;;;3.05;1.00;;;22.60;60.40;;;;;;5072596;28;20028;-57
2021/10/17 06:13:00;;;;;;;5.57;1.33;;;22.60;59.30;;;;;;5072038;28;20032;-59
2021/10/17 06:15:28;;;;;;;3.47;1.35;;;22.60;58.90;;;;;;5066717;28;20036;-60
2021/10/17 06:17:55;;;;;;;8.10;1.35;;;22.60;59.70;;;;;;5072691;28;20027;-60
2021/10/17 06:20:22;;;;;;;4.85;1.20;;;22.60;60.10;;;;;;5072586;28;20521;-62
2021/10/17 06:22:50;;;;;;;4.53;1.45;;;22.60;59.20;;;;;;5072321;28;20016;-59
2021/10/17 06:25:17;;;;;;;2.17;0.88;;;22.50;60.00;;;;;;5061284;28;20024;-64
2021/10/17 06:27:45;;;;;;;3.67;1.38;;;22.50;60.40;;;;;;5070999;28;20386;-62
2021/10/17 06:30:12;;;;;;;3.10;1.00;;;22.50;61.00;;;;;;5072113;28;20039;-58
2021/10/17 06:32:40;;;;;;;5.30;1.17;;;22.50;60.60;;;;;;5071859;28;20024;-60
2021/10/17 06:35:08;;;;;;;4.60;1.00;;;22.40;60.20;;;;;;5066167;28;20040;-59
2021/10/17 06:37:35;;;;;;;2.53;0.73;;;22.40;61.10;;;;;;5072549;28;20371;-60
2021/10/17 06:40:02;;;;;;;12.85;2.47;;;22.40;60.70;;;;;;5071963;28;20047;-67
2021/10/17 06:42:30;;;;;;;7.53;1.40;;;22.40;60.80;;;;;;5071721;28;20127;-60
2021/10/17 06:44:57;;;;;;;8.52;1.50;;;22.40;61.10;;;;;;5064752;28;20078;-63
2021/10/17 06:47:25;;;;;;;3.17;1.00;;;22.40;61.10;;;;;;5072317;28;20024;-64
2021/10/17 06:49:52;;;;;;;2.53;1.23;;;22.40;61.30;;;;;;5072218;28;20070;-64
2021/10/17 06:52:20;;;;;;;2.75;0.68;;;22.30;61.80;;;;;;5071341;28;20040;-61
2021/10/17 06:54:47;;;;;;;2.65;0.90;;;22.20;61.80;;;;;;5065051;28;20047;-64
2021/10/17 06:57:14;;;;;;;3.70;1.20;;;22.10;61.90;;;;;;5060869;28;20423;-66
2021/10/17 06:59:42;;;;;;;2.83;1.10;;;22.10;61.90;;;;;;5063395;28;20097;-65
2021/10/17 07:02:10;;;;;;;3.55;1.50;;;22.10;62.20;;;;;;5060532;28;20086;-64
2021/10/17 07:04:37;;;;;;;2.35;0.80;;;22.00;62.30;;;;;;5051352;28;20055;-65
2021/10/17 07:07:04;;;;;;;2.97;1.25;;;22.00;62.70;;;;;;5060440;28;20041;-60
2021/10/17 07:09:32;;;;;;;3.95;1.15;;;21.90;63.20;;;;;;5059145;28;20028;-56
2021/10/17 07:11:59;;;;;;;5.22;1.15;;;21.90;63.20;;;;;;5059726;28;20293;-61
2021/10/17 07:14:26;;;;;;;5.57;1.17;;;21.90;63.40;;;;;;5065469;28;20033;-59
2021/10/17 07:16:54;;;;;;;2.55;1.17;;;21.80;63.30;;;;;;5069420;28;20020;-64
2021/10/17 07:19:21;;;;;;;3.05;0.98;;;21.80;63.70;;;;;;5072324;28;20055;-65
2021/10/17 07:21:48;;;;;;;3.38;0.90;;;21.70;63.70;;;;;;5072407;28;20035;-66
2021/10/17 07:24:16;;;;;;;1.05;0.55;;;21.70;63.70;;;;;;5067810;28;20387;-59
2021/10/17 07:26:43;;;;;;;2.72;1.27;;;21.70;64.30;;;;;;5070890;28;20133;-60
2021/10/17 07:29:11;;;;;;;5.22;1.20;;;21.60;64.40;;;;;;5071572;28;20387;-61
2021/10/17 07:31:38;;;;;;;3.53;1.05;;;21.60;64.80;;;;;;5068253;28;20038;-55
2021/10/17 07:34:06;;;;;;;3.10;1.30;;;21.50;64.70;;;;;;5066082;28;20235;-62
2021/10/17 07:36:33;;;;;;;2.22;1.10;;;21.50;65.10;;;;;;5071171;28;20037;-67
2021/10/17 07:39:01;;;;;;;3.97;1.05;;;21.40;65.10;;;;;;5070684;28;20138;-58
2021/10/17 07:41:28;;;;;;;4.00;1.10;;;21.40;65.40;;;;;;5071826;28;20088;-65
2021/10/17 07:43:56;;;;;;;2.53;0.80;;;21.40;65.50;;;;;;5063674;28;20032;-61
2021/10/17 07:46:23;;;;;;;4.25;1.17;;;21.40;65.80;;;;;;5069844;28;20029;-64
2021/10/17 07:48:56;;;;;;;3.90;1.38;;;21.40;66.10;;;;;;5071589;28;20028;-62
2021/10/17 07:51:25;;;;;;;3.92;1.10;;;21.30;66.00;;;;;;5071292;28;20037;-62
2021/10/17 07:53:53;;;;;;;3.58;1.30;;;21.30;66.10;;;;;;5065222;28;20045;-60
2021/10/17 07:56:21;;;;;;;3.20;1.33;;;21.20;66.30;;;;;;5069597;28;20116;-57
2021/10/17 07:58:50;;;;;;;2.05;1.15;;;21.20;66.30;;;;;;5070552;28;20068;-60
2021/10/17 08:01:18;;;;;;;3.38;1.30;;;21.20;66.60;;;;;;5070733;28;20033;-60
2021/10/17 08:03:45;;;;;;;3.80;1.10;;;21.10;66.70;;;;;;5064500;28;20553;-57
2021/10/17 08:06:13;;;;;;;5.53;1.23;;;21.10;66.90;;;;;;5068595;28;20076;-61
2021/10/17 08:08:40;;;;;;;5.53;1.38;;;21.10;66.90;;;;;;5070358;28;20017;-59
2021/10/17 08:11:07;;;;;;;2.72;1.23;;;21.10;67.10;;;;;;5070685;28;20102;-62
2021/10/17 08:13:35;;;;;;;2.50;0.98;;;21.00;67.20;;;;;;5068717;28;20071;-60
2021/10/17 08:16:03;;;;;;;3.55;0.93;;;21.00;67.40;;;;;;5066016;28;20039;-62
2021/10/17 08:18:30;;;;;;;2.70;1.05;;;21.00;67.60;;;;;;5071021;28;20463;-61
2021/10/17 08:20:57;;;;;;;2.55;1.15;;;21.00;67.70;;;;;;5070728;28;20190;-60
2021/10/17 08:23:25;;;;;;;2.20;1.00;;;21.00;67.80;;;;;;5074766;28;20033;-61
2021/10/17 08:25:52;;;;;;;7.03;1.50;;;21.00;67.90;;;;;;5067943;28;20075;-61
2021/10/17 08:28:20;;;;;;;1.98;0.80;;;20.90;68.60;;;;;;5074405;28;20039;-61
2021/10/17 08:30:48;;;;;;;3.35;1.02;;;20.90;68.10;;;;;;5074782;28;20493;-59
2021/10/17 08:33:17;;;;;;;5.00;1.27;;;20.90;68.20;;;;;;5074427;28;20025;-62
2021/10/17 08:35:45;;;;;;;3.78;1.38;;;20.80;68.20;;;;;;5066269;28;20490;-60
2021/10/17 08:38:12;;;;;;;2.70;1.02;;;20.80;68.30;;;;;;5072984;28;20103;-60
2021/10/17 08:40:40;;;;;;;1.48;0.75;;;20.80;68.40;;;;;;5070865;28;20059;-59
2021/10/17 08:43:07;;;;;;;3.35;1.30;;;20.80;68.50;;;;;;5072053;28;20651;-62
2021/10/17 08:45:35;;;;;;;2.92;1.25;;;20.70;68.60;;;;;;5067919;28;20043;-60
2021/10/17 08:48:03;;;;;;;3.58;1.50;;;20.70;68.60;;;;;;5071869;28;20021;-59
2021/10/17 08:50:31;;;;;;;3.20;1.00;;;20.70;68.80;;;;;;5071951;28;20473;-58
2021/10/17 08:52:58;;;;;;;2.30;1.13;;;20.70;69.00;;;;;;5073676;28;20048;-59
2021/10/17 08:55:27;;;;;;;2.28;1.15;;;20.70;69.00;;;;;;5066152;28;20039;-63
2021/10/17 08:57:55;;;;;;;4.60;1.80;;;20.70;69.10;;;;;;5071325;28;20027;-60
2021/10/17 09:00:40;;;;;;;3.38;1.02;;;20.70;69.10;;;;;;5072166;28;20032;-61
2021/10/17 09:03:07;;;;;;;5.40;1.60;;;20.60;69.00;;;;;;5072788;28;20024;-61
2021/10/17 09:05:45;;;;;;;3.13;1.02;;;20.60;69.00;;;;;;5065412;28;20139;-61
2021/10/17 09:08:26;;;;;;;3.00;1.08;;;20.70;69.10;;;;;;5070275;28;20029;-60
2021/10/17 09:10:53;;;;;;;3.33;1.27;;;20.60;69.50;;;;;;5070048;28;20470;-60
2021/10/17 09:13:21;;;;;;;5.13;1.20;;;20.60;69.50;;;;;;5072018;28;20036;-61
2021/10/17 09:15:48;;;;;;;3.95;1.20;;;20.50;69.60;;;;;;5067402;28;20394;-59
2021/10/17 09:18:22;;;;;;;5.80;1.08;;;20.60;69.50;;;;;;5071821;28;20270;-61
2021/10/17 09:20:49;;;;;;;4.47;1.65;;;20.50;69.50;;;;;;5070907;28;20052;-59
2021/10/17 09:23:41;;;;;;;4.63;1.17;;;20.50;69.70;;;;;;5073358;28;20440;-60
2021/10/17 09:26:13;;;;;;;3.03;1.10;;;20.60;69.80;;;;;;5068277;28;20383;-61
2021/10/17 09:28:41;;;;;;;3.47;1.33;;;20.50;69.90;;;;;;5055113;28;20790;-61
2021/10/17 09:31:11;;;;;;;4.38;1.20;;;20.50;69.80;;;;;;5073195;28;20043;-60
2021/10/17 09:33:53;;;;;;;4.30;1.17;;;20.50;69.90;;;;;;5069759;28;20382;-60
2021/10/17 09:36:26;;;;;;;5.53;1.42;;;20.50;69.90;;;;;;5070244;28;20024;-56
2021/10/17 09:39:01;;;;;;;4.10;1.00;;;20.50;70.10;;;;;;5070239;28;20497;-59
2021/10/17 09:41:37;;;;;;;3.75;1.27;;;20.50;70.10;;;;;;5073239;28;20070;-63
2021/10/17 09:44:05;;;;;;;6.20;1.65;;;20.50;70.10;;;;;;5068138;28;20105;-62
2021/10/17 09:46:33;;;;;;;3.38;0.93;;;20.40;70.20;;;;;;5072906;28;20418;-58
2021/10/17 09:49:00;;;;;;;3.88;1.65;;;20.40;70.30;;;;;;5072863;28;20028;-62
2021/10/17 09:51:29;;;;;;;3.75;1.55;;;20.40;70.50;;;;;;5073167;28;20045;-59
2021/10/17 09:53:58;;;;;;;2.67;1.10;;;20.40;70.50;;;;;;5066691;28;20067;-60
2021/10/17 09:56:39;;;;;;;3.70;1.23;;;20.40;70.60;;;;;;5072124;28;20032;-60
2021/10/17 09:59:09;;;;;;;2.17;1.00;;;20.40;70.80;;;;;;5072218;28;20016;-61
2021/10/17 10:01:38;;;;;;;2.58;1.05;;;20.40;70.90;;;;;;5072985;28;20452;-61
2021/10/17 10:04:09;;;;;;;1.45;0.70;;;20.40;70.80;;;;;;5068006;28;20032;-62
2021/10/17 10:06:37;;;;;;;2.70;1.23;;;20.40;70.90;;;;;;5072896;28;20119;-64
2021/10/17 10:09:07;;;;;;;6.40;1.55;;;20.30;70.80;;;;;;5072909;28;20061;-57
2021/10/17 10:11:36;;;;;;;3.10;1.20;;;20.30;70.90;;;;;;5073025;28;20025;-59
2021/10/17 10:14:11;;;;;;;3.40;1.02;;;20.30;70.80;;;;;;5067827;28;20040;-54
2021/10/17 10:16:39;;;;;;;3.58;1.45;;;20.30;70.90;;;;;;5070876;28;20032;-60
2021/10/17 10:19:09;;;;;;;3.35;1.00;;;20.30;71.00;;;;;;5072570;28;20028;-59
2021/10/17 10:21:38;;;;;;;5.07;1.50;;;20.20;71.20;;;;;;5072667;28;20060;-59
2021/10/17 10:24:08;;;;;;;3.30;1.33;;;20.20;71.20;;;;;;5074060;28;20081;-63
2021/10/17 10:26:37;;;;;;;3.17;1.23;;;20.20;71.30;;;;;;5074314;28;20020;-60
2021/10/17 10:29:05;;;;;;;4.07;1.38;;;20.20;71.30;;;;;;5074389;28;20073;-61
2021/10/17 10:31:41;;;;;;;4.78;1.67;;;20.20;71.50;;;;;;5072918;28;20020;-54
2021/10/17 10:34:14;;;;;;;3.13;1.63;;;20.20;71.60;;;;;;5074143;28;20433;-59
2021/10/17 10:36:45;;;;;;;4.90;1.50;;;20.10;71.50;;;;;;5074213;28;20036;-60
2021/10/17 10:39:16;;;;;;;5.47;1.70;;;20.10;71.60;;;;;;5073877;28;20443;-62
2021/10/17 10:42:04;;;;;;;3.33;1.58;;;20.10;71.70;;;;;;5066437;28;20032;-57
2021/10/17 10:44:31;;;;;;;4.07;1.45;;;20.10;71.80;;;;;;5067054;28;20016;-56
2021/10/17 10:47:19;;;;;;;4.40;1.40;;;20.10;71.80;;;;;;5072051;28;20499;-61
2021/10/17 10:49:47;;;;;;;3.38;1.33;;;20.10;71.90;;;;;;5072489;28;20328;-59
2021/10/17 10:52:30;;;;;;;2.95;1.23;;;20.00;71.80;;;;;;5070704;28;20052;-58
2021/10/17 10:55:02;;;;;;;2.25;1.00;;;20.00;71.90;;;;;;5071903;28;20036;-59
2021/10/17 10:57:36;;;;;;;4.43;1.17;;;20.00;72.00;;;;;;5071686;28;20107;-59
2021/10/17 11:00:19;;;;;;;3.67;1.33;;;20.00;72.20;;;;;;5071903;28;20084;-61
2021/10/17 11:03:11;;;;;;;4.00;1.52;;;20.00;72.20;;;;;;5068317;28;20037;-52
2021/10/17 11:05:38;;;;;;;;;;;20.00;72.30;;;;;;5071760;28;20027;-51
2021/10/17 11:08:16;;;;;;;4.32;1.50;;;20.00;72.30;;;;;;5070862;28;19950;-59
2021/10/17 11:10:47;;;;;;;2.65;1.48;;;20.00;72.30;;;;;;5071610;28;20024;-63
2021/10/17 11:13:33;;;;;;;6.37;1.63;;;19.90;72.30;;;;;;5065798;28;20060;-62
2021/10/17 11:16:02;;;;;;;2.60;1.13;;;19.90;72.20;;;;;;5071327;28;20033;-62
2021/10/17 11:18:32;;;;;;;3.72;1.40;;;19.90;72.30;;;;;;5071174;28;20054;-61
2021/10/17 11:21:01;;;;;;;3.42;1.15;;;19.90;72.20;;;;;;5073475;28;20129;-57
2021/10/17 11:23:32;;;;;;;4.10;1.08;;;19.90;72.20;;;;;;5073173;28;20063;-60
2021/10/17 11:26:02;;;;;;;7.55;1.40;;;19.90;72.40;;;;;;5072914;28;20032;-68
2021/10/17 11:28:31;;;;;;;5.13;1.42;;;19.90;72.50;;;;;;5073126;28;20031;-61
2021/10/17 11:31:07;;;;;;;4.20;1.50;;;19.80;72.70;;;;;;5069381;28;20035;-62
2021/10/17 11:33:35;;;;;;;2.45;1.30;;;19.80;72.50;;;;;;5073121;28;20020;-62
2021/10/17 11:36:04;;;;;;;4.75;1.30;;;19.80;72.30;;;;;;5072862;28;20025;-67
2021/10/17 11:38:31;;;;;;;3.67;1.65;;;19.80;72.30;;;;;;5072895;28;20035;-63
2021/10/17 11:41:07;;;;;;;2.50;1.17;;;19.80;72.40;;;;;;5072893;28;20035;-63
2021/10/17 11:43:49;;;;;;;2.22;1.05;;;19.80;72.30;;;;;;5072629;28;20027;-64
2021/10/17 11:46:23;;;;;;;4.15;1.10;;;19.80;72.20;;;;;;5071664;28;20020;-65
2021/10/17 11:48:59;;;;;;;3.30;1.30;;;19.80;72.30;;;;;;5071570;28;20112;-62
2021/10/17 11:51:26;;;;;;;4.63;1.60;;;19.80;72.40;;;;;;5073012;28;20601;-63
2021/10/17 11:53:59;;;;;;;3.60;1.30;;;19.70;72.20;;;;;;5072475;28;20040;-63
2021/10/17 11:56:26;;;;;;;;;;;19.80;72.30;;;;;;5072434;28;20020;-64
2021/10/17 11:58:53;;;;;;;2.75;1.15;;;19.80;72.20;;;;;;5072296;28;19904;-61
2021/10/17 12:01:21;;;;;;;3.67;1.05;;;19.70;72.40;;;;;;5072822;28;20016;-63
2021/10/17 12:03:59;;;;;;;3.78;1.20;;;19.70;72.20;;;;;;5072277;28;20021;-62
2021/10/17 12:06:26;;;;;;;5.05;1.67;;;19.70;72.50;;;;;;5071520;28;20059;-64
2021/10/17 12:08:55;;;;;;;3.15;1.35;;;19.70;72.40;;;;;;5071799;28;20471;-63
2021/10/17 12:11:24;;;;;;;5.43;1.10;;;19.70;72.30;;;;;;5072736;28;20031;-61
2021/10/17 12:13:55;;;;;;;2.90;1.23;;;19.70;72.40;;;;;;5072698;28;20063;-63
2021/10/17 12:16:25;;;;;;;2.60;1.10;;;19.70;72.30;;;;;;5062215;28;20040;-66
2021/10/17 12:18:58;;;;;;;1.80;1.10;;;19.70;72.70;;;;;;5066450;28;20021;-68
2021/10/17 12:21:29;;;;;;;4.10;0.88;;;19.70;73.10;;;;;;5069300;28;20475;-61
2021/10/17 12:23:57;;;;;;;2.20;1.25;;;19.70;73.00;;;;;;5072339;28;20193;-63
2021/10/17 12:26:28;;;;;;;3.13;0.98;;;19.70;72.70;;;;;;5071271;28;20024;-63
2021/10/17 12:29:12;;;;;;;4.47;1.60;;;19.60;73.00;;;;;;5072780;28;20024;-64
2021/10/17 12:31:44;;;;;;;3.88;1.38;;;19.60;72.60;;;;;;5072176;28;20032;-62
2021/10/17 12:34:13;;;;;;;2.72;0.93;;;19.60;72.60;;;;;;5071904;28;20119;-63
2021/10/17 12:36:42;;;;;;;8.43;1.45;;;19.60;72.60;;;;;;5072294;28;20383;-64
2021/10/17 12:39:12;;;;;;;4.07;1.30;;;19.60;72.90;;;;;;5072445;28;20120;-63
2021/10/17 12:41:40;;;;;;;2.95;1.02;;;19.60;72.50;;;;;;5072655;28;20043;-60
2021/10/17 12:44:09;;;;;;;3.08;1.15;;;19.60;72.40;;;;;;5072167;28;20029;-61
2021/10/17 12:46:38;;;;;;;2.83;1.00;;;19.60;72.20;;;;;;5072459;28;20463;-62
2021/10/17 12:49:18;;;;;;;2.65;1.08;;;19.60;72.10;;;;;;5071933;28;20025;-62
2021/10/17 12:51:53;;;;;;;4.13;1.40;;;19.60;72.10;;;;;;5072431;28;20085;-62
2021/10/17 12:54:28;;;;;;;4.63;1.73;;;19.50;71.90;;;;;;5072059;28;20479;-60